Airport ID:KTSP
Update Time (UTC):10/04/2021 18:14
Wind Speed (Knots):16
Wind Direction (Magnetic):310
Temperature (°C):15
Dew Point (°C):-0.2
Humidity (%):36.3
Altimeter (inHg):30.07
Density Altitude (Feet):
Visibility (Miles):8
Clouds (Hundreds of feet):CLR
Present Weather:
METAR:METAR KTSP 101810Z AUTO 32018KT 8SM CLR 15/M00 A3007 RMK AO2

The data displayed is for advisory purposes only and is not to be used for flight planning or operations.